Log pod Mangartom, Slovenia

08:38 AM CEST on avgust 14, 2018 (GMT +0200)
Tarvisio | | Change Station

Viš 2552 ft 46.50 °N, 13.58 °E | Updated 43 minutes ago

Dez
Dez
61 °F
Feels Like 61 °F
N
0
Veter Spremenljivo Veter od Sever

Danes
High -- | Low -- °F
--% Chance of Precip.
Yesterday
High -- | Low -- °F
Precip. -- v
Zračni tlak 29.95 v
Vidljivost 2.5 milje
Oblaki Pretezno oblacno 3000 ft
Rosišče 57 °F
Vlažnost 88%
Padavine 0.00 v
Snow Depth Not available.
6:02 AM 8:17 PM
Naraščajoči krajec, 12% visible
METAR LIVO 140555Z 00000KT 4000 RA BR BKN030 16/14 Q1014 RMK OVC SCT060 VIS MIN 4000
Zračni tlak 29.95 v
Vidljivost 2.5 milje
Oblaki Pretezno oblacno 3000 ft
Rosišče 57 °F
Vlažnost 88%
Padavine 0.00 v
Snow Depth Not available.
6:02 AM 8:17 PM
Naraščajoči krajec, 12% visible
METAR LIVO 140555Z 00000KT 4000 RA BR BKN030 16/14 Q1014 RMK OVC SCT060 VIS MIN 4000

Get Severe Weather Alerts

Thanks for signing up!

Be on the lookout for a verification email in your inbox.

You'll start receiving the daily forecast at 6 AM.

×

10-Day Weather Forecast

×

Almanac

Astronomija

Aug. 14, 2018 Rise Set
Actual Time
Civil Twilight
Nautical Twilight
Astronomical Twilight
Moon
Length Of Visible Light
Dolžina dneva
Tomorrow will be .
, % of the Moon is Illuminated

Današnji ekstremi

Country Highs Country Lows

Community

WunderPhotos

Category 6

Welcome to Category 6. This is the collective home for Weather Underground's featured writeups by Dr. Jeff Masters (right), Bob Henson (left), Chris Burt, and other regular contributors.

Nearby

Air Quality

  Air Quality AQ Index Pollutant
Not available.

Snow Depth

Station Depth Višina

Earthquake Activity

City Distance Mag. Time & Date
Minimum magnitude displayed is 2.5.

Coastal Water Temperatures

Mesto Temperatura

Stations

Nearby Weather Stations

Station Location Temp Občutek zaradi vetra Rosišče Vlažnost Veter Precip. Viš Obnovljeno Type